sensor_id;sensor_type;location;lat;lon;timestamp;pressure;altitude;pressure_sealevel;temperature;humidity
6680;BME280;3376;42.664;23.346;2023-04-24T00:00:53;94290.97;;;12.75;76.56
6680;BME280;3376;42.664;23.346;2023-04-24T00:03:21;94305.84;;;12.94;74.69
6680;BME280;3376;42.664;23.346;2023-04-24T00:05:48;94290.88;;;12.96;73.55
6680;BME280;3376;42.664;23.346;2023-04-24T00:08:16;94299.72;;;13.02;73.73
6680;BME280;3376;42.664;23.346;2023-04-24T00:10:44;94279.25;;;12.92;74.20
6680;BME280;3376;42.664;23.346;2023-04-24T00:13:11;94285.84;;;12.88;75.04
6680;BME280;3376;42.664;23.346;2023-04-24T00:15:38;94289.00;;;12.84;78.94
6680;BME280;3376;42.664;23.346;2023-04-24T00:18:05;94287.19;;;12.78;81.48
6680;BME280;3376;42.664;23.346;2023-04-24T00:20:31;94282.13;;;12.63;81.98
6680;BME280;3376;42.664;23.346;2023-04-24T00:22:58;94270.69;;;12.51;83.75
6680;BME280;3376;42.664;23.346;2023-04-24T00:25:25;94274.69;;;12.47;83.91
6680;BME280;3376;42.664;23.346;2023-04-24T00:27:53;94271.78;;;12.29;87.46
6680;BME280;3376;42.664;23.346;2023-04-24T00:30:20;94275.38;;;12.28;87.58
6680;BME280;3376;42.664;23.346;2023-04-24T00:32:47;94281.19;;;12.30;86.43
6680;BME280;3376;42.664;23.346;2023-04-24T00:35:13;94273.03;;;12.06;88.49
6680;BME280;3376;42.664;23.346;2023-04-24T00:37:41;94283.63;;;12.04;91.06
6680;BME280;3376;42.664;23.346;2023-04-24T00:40:08;94276.22;;;12.01;91.72
6680;BME280;3376;42.664;23.346;2023-04-24T00:42:35;94274.78;;;11.99;93.83
6680;BME280;3376;42.664;23.346;2023-04-24T00:45:05;94276.34;;;11.93;92.58
6680;BME280;3376;42.664;23.346;2023-04-24T00:47:32;94276.34;;;11.93;90.73
6680;BME280;3376;42.664;23.346;2023-04-24T00:50:01;94266.56;;;11.67;92.74
6680;BME280;3376;42.664;23.346;2023-04-24T00:52:28;94278.00;;;11.52;93.64
6680;BME280;3376;42.664;23.346;2023-04-24T00:54:56;94269.88;;;11.34;93.56
6680;BME280;3376;42.664;23.346;2023-04-24T00:57:23;94269.50;;;11.37;94.47
6680;BME280;3376;42.664;23.346;2023-04-24T00:59:51;94273.63;;;11.31;95.39
6680;BME280;3376;42.664;23.346;2023-04-24T01:02:20;94284.66;;;11.40;94.75
6680;BME280;3376;42.664;23.346;2023-04-24T01:04:49;94266.66;;;11.32;94.60
6680;BME280;3376;42.664;23.346;2023-04-24T01:07:17;94273.56;;;11.46;93.96
6680;BME280;3376;42.664;23.346;2023-04-24T01:09:48;94279.81;;;11.51;94.20
6680;BME280;3376;42.664;23.346;2023-04-24T01:12:17;94253.53;;;11.40;93.08
6680;BME280;3376;42.664;23.346;2023-04-24T01:14:44;94275.16;;;11.47;90.57
6680;BME280;3376;42.664;23.346;2023-04-24T01:17:11;94141.53;;;10.75;87.52
6680;BME280;3376;42.664;23.346;2023-04-24T01:19:39;94263.56;;;11.64;87.66
6680;BME280;3376;42.664;23.346;2023-04-24T01:22:11;94258.09;;;11.80;84.15
6680;BME280;3376;42.664;23.346;2023-04-24T01:24:39;94253.34;;;11.83;84.07
6680;BME280;3376;42.664;23.346;2023-04-24T01:27:06;94257.59;;;11.91;83.08
6680;BME280;3376;42.664;23.346;2023-04-24T01:29:34;94241.84;;;11.99;84.27
6680;BME280;3376;42.664;23.346;2023-04-24T01:32:01;94245.38;;;11.92;81.75
6680;BME280;3376;42.664;23.346;2023-04-24T01:34:28;94246.66;;;11.74;81.46
6680;BME280;3376;42.664;23.346;2023-04-24T01:36:55;94249.97;;;11.62;81.57
6680;BME280;3376;42.664;23.346;2023-04-24T01:39:24;94240.13;;;11.57;82.15
6680;BME280;3376;42.664;23.346;2023-04-24T01:41:51;94215.84;;;11.37;81.94
6680;BME280;3376;42.664;23.346;2023-04-24T01:44:19;94233.72;;;11.53;82.45
6680;BME280;3376;42.664;23.346;2023-04-24T01:46:45;94241.63;;;11.45;83.30
6680;BME280;3376;42.664;23.346;2023-04-24T01:49:12;94242.59;;;11.38;84.80
6680;BME280;3376;42.664;23.346;2023-04-24T01:51:39;94217.75;;;11.29;84.37
6680;BME280;3376;42.664;23.346;2023-04-24T01:54:06;94231.69;;;11.49;83.76
6680;BME280;3376;42.664;23.346;2023-04-24T01:56:34;94230.72;;;11.50;85.66
6680;BME280;3376;42.664;23.346;2023-04-24T01:59:02;94224.44;;;11.38;87.39
6680;BME280;3376;42.664;23.346;2023-04-24T02:01:33;94238.75;;;11.34;88.55
6680;BME280;3376;42.664;23.346;2023-04-24T02:04:01;94227.28;;;11.22;89.42
6680;BME280;3376;42.664;23.346;2023-04-24T02:06:28;94237.97;;;11.12;92.62
6680;BME280;3376;42.664;23.346;2023-04-24T02:08:56;94226.50;;;11.00;93.43
6680;BME280;3376;42.664;23.346;2023-04-24T02:11:23;94233.63;;;10.98;93.68
6680;BME280;3376;42.664;23.346;2023-04-24T02:13:51;94218.63;;;10.94;94.50
6680;BME280;3376;42.664;23.346;2023-04-24T02:16:18;94229.13;;;10.86;95.06
6680;BME280;3376;42.664;23.346;2023-04-24T02:18:45;94222.09;;;10.80;95.82
6680;BME280;3376;42.664;23.346;2023-04-24T02:21:11;94216.72;;;10.81;95.07
6680;BME280;3376;42.664;23.346;2023-04-24T02:23:38;94214.31;;;10.80;95.25
6680;BME280;3376;42.664;23.346;2023-04-24T02:26:05;94215.09;;;10.80;94.91
6680;BME280;3376;42.664;23.346;2023-04-24T02:28:32;94228.63;;;10.76;95.72
6680;BME280;3376;42.664;23.346;2023-04-24T02:31:00;94224.28;;;10.61;96.28
6680;BME280;3376;42.664;23.346;2023-04-24T02:33:27;94210.19;;;10.49;96.67
6680;BME280;3376;42.664;23.346;2023-04-24T02:35:54;94216.00;;;10.51;96.58
6680;BME280;3376;42.664;23.346;2023-04-24T02:38:20;94192.22;;;10.27;97.49
6680;BME280;3376;42.664;23.346;2023-04-24T02:40:47;94209.94;;;10.44;97.56
6680;BME280;3376;42.664;23.346;2023-04-24T02:43:14;94197.56;;;10.40;97.40
6680;BME280;3376;42.664;23.346;2023-04-24T02:45:41;94202.81;;;10.46;94.93
6680;BME280;3376;42.664;23.346;2023-04-24T02:48:09;94204.75;;;10.44;95.51
6680;BME280;3376;42.664;23.346;2023-04-24T02:50:35;94199.97;;;10.41;97.13
6680;BME280;3376;42.664;23.346;2023-04-24T02:53:02;94195.59;;;10.27;97.79
6680;BME280;3376;42.664;23.346;2023-04-24T02:55:29;94201.34;;;10.23;99.17
6680;BME280;3376;42.664;23.346;2023-04-24T02:57:56;94193.19;;;10.26;99.12
6680;BME280;3376;42.664;23.346;2023-04-24T03:00:23;94198.56;;;10.24;99.32
6680;BME280;3376;42.664;23.346;2023-04-24T03:02:50;94199.81;;;10.14;100.00
6680;BME280;3376;42.664;23.346;2023-04-24T03:05:18;94202.03;;;10.17;100.00
6680;BME280;3376;42.664;23.346;2023-04-24T03:07:45;94206.00;;;10.13;100.00
6680;BME280;3376;42.664;23.346;2023-04-24T03:10:12;94205.19;;;10.12;100.00
6680;BME280;3376;42.664;23.346;2023-04-24T03:12:39;94206.59;;;10.00;100.00
6680;BME280;3376;42.664;23.346;2023-04-24T03:15:07;94198.56;;;9.95;100.00
6680;BME280;3376;42.664;23.346;2023-04-24T03:17:34;94208.72;;;9.97;100.00
6680;BME280;3376;42.664;23.346;2023-04-24T03:20:00;94206.59;;;10.00;100.00
6680;BME280;3376;42.664;23.346;2023-04-24T03:22:28;94198.38;;;9.97;100.00
6680;BME280;3376;42.664;23.346;2023-04-24T03:24:57;94197.75;;;9.95;100.00
6680;BME280;3376;42.664;23.346;2023-04-24T03:27:24;94195.09;;;9.88;99.25
6680;BME280;3376;42.664;23.346;2023-04-24T03:29:51;94216.41;;;10.05;98.17
6680;BME280;3376;42.664;23.346;2023-04-24T03:32:20;94211.84;;;10.07;96.99
6680;BME280;3376;42.664;23.346;2023-04-24T03:34:47;94216.56;;;10.03;98.21
6680;BME280;3376;42.664;23.346;2023-04-24T03:37:14;94208.03;;;9.88;100.00
6680;BME280;3376;42.664;23.346;2023-04-24T03:39:42;94208.81;;;9.74;100.00
6680;BME280;3376;42.664;23.346;2023-04-24T03:42:09;94207.22;;;9.73;100.00
6680;BME280;3376;42.664;23.346;2023-04-24T03:44:35;94204.53;;;9.81;100.00
6680;BME280;3376;42.664;23.346;2023-04-24T03:47:02;94206.06;;;9.90;100.00
6680;BME280;3376;42.664;23.346;2023-04-24T03:49:29;94207.66;;;9.91;100.00
6680;BME280;3376;42.664;23.346;2023-04-24T03:51:56;94214.34;;;10.00;100.00
6680;BME280;3376;42.664;23.346;2023-04-24T03:54:22;94204.56;;;10.10;100.00
6680;BME280;3376;42.664;23.346;2023-04-24T03:56:50;94208.22;;;10.16;99.77
6680;BME280;3376;42.664;23.346;2023-04-24T03:59:17;94205.25;;;10.04;99.42
6680;BME280;3376;42.664;23.346;2023-04-24T04:01:44;94205.56;;;10.09;98.51
6680;BME280;3376;42.664;23.346;2023-04-24T04:04:11;94209.63;;;10.18;98.51
6680;BME280;3376;42.664;23.346;2023-04-24T04:06:38;94214.97;;;10.31;98.85
6680;BME280;3376;42.664;23.346;2023-04-24T04:09:05;94224.16;;;10.34;99.08
6680;BME280;3376;42.664;23.346;2023-04-24T04:11:32;94212.09;;;10.41;97.85
6680;BME280;3376;42.664;23.346;2023-04-24T04:14:02;94210.13;;;10.43;97.16
6680;BME280;3376;42.664;23.346;2023-04-24T04:16:29;94216.38;;;10.48;98.72
6680;BME280;3376;42.664;23.346;2023-04-24T04:18:55;94213.47;;;10.58;98.72
6680;BME280;3376;42.664;23.346;2023-04-24T04:21:22;94219.59;;;10.72;96.81
6680;BME280;3376;42.664;23.346;2023-04-24T04:23:49;94215.91;;;10.81;95.41
6680;BME280;3376;42.664;23.346;2023-04-24T04:26:16;94220.00;;;10.90;94.56
6680;BME280;3376;42.664;23.346;2023-04-24T04:28:44;94225.31;;;11.03;93.34
6680;BME280;3376;42.664;23.346;2023-04-24T04:31:12;94172.13;;;10.86;93.57
6680;BME280;3376;42.664;23.346;2023-04-24T04:33:39;94230.31;;;11.25;93.03
6680;BME280;3376;42.664;23.346;2023-04-24T04:36:06;94119.75;;;10.69;93.47
6680;BME280;3376;42.664;23.346;2023-04-24T04:38:34;94231.81;;;11.62;92.49
6680;BME280;3376;42.664;23.346;2023-04-24T04:41:00;94228.47;;;11.68;91.62
6680;BME280;3376;42.664;23.346;2023-04-24T04:43:27;94227.47;;;11.69;89.27
6680;BME280;3376;42.664;23.346;2023-04-24T04:45:54;94224.75;;;11.77;90.83
6680;BME280;3376;42.664;23.346;2023-04-24T04:48:22;94097.63;;;10.94;88.27
6680;BME280;3376;42.664;23.346;2023-04-24T04:50:49;94259.19;;;11.92;86.82
6680;BME280;3376;42.664;23.346;2023-04-24T04:53:16;94254.19;;;11.91;85.91
6680;BME280;3376;42.664;23.346;2023-04-24T04:55:43;94251.16;;;11.87;85.74
6680;BME280;3376;42.664;23.346;2023-04-24T04:58:09;94249.41;;;11.94;85.90
6680;BME280;3376;42.664;23.346;2023-04-24T05:00:36;94259.78;;;11.94;83.94
6680;BME280;3376;42.664;23.346;2023-04-24T05:03:03;94258.75;;;11.89;83.34
6680;BME280;3376;42.664;23.346;2023-04-24T05:05:31;94255.00;;;11.91;83.39
6680;BME280;3376;42.664;23.346;2023-04-24T05:07:58;94247.03;;;11.99;84.21
6680;BME280;3376;42.664;23.346;2023-04-24T05:10:25;94245.53;;;12.11;81.76
6680;BME280;3376;42.664;23.346;2023-04-24T05:12:52;94259.19;;;12.26;80.20
6680;BME280;3376;42.664;23.346;2023-04-24T05:15:18;94240.16;;;12.19;77.39
6680;BME280;3376;42.664;23.346;2023-04-24T05:17:45;94264.56;;;12.25;76.41
6680;BME280;3376;42.664;23.346;2023-04-24T05:20:12;94269.47;;;12.41;74.79
6680;BME280;3376;42.664;23.346;2023-04-24T05:22:41;94248.63;;;12.34;74.04
6680;BME280;3376;42.664;23.346;2023-04-24T05:25:08;94260.28;;;12.51;72.63
6680;BME280;3376;42.664;23.346;2023-04-24T05:27:35;94258.31;;;12.60;72.20
6680;BME280;3376;42.664;23.346;2023-04-24T05:30:02;94261.91;;;12.52;71.41
6680;BME280;3376;42.664;23.346;2023-04-24T05:32:29;94250.84;;;12.37;74.21
6680;BME280;3376;42.664;23.346;2023-04-24T05:34:56;94254.50;;;12.49;73.28
6680;BME280;3376;42.664;23.346;2023-04-24T05:37:23;94248.34;;;12.63;72.10
6680;BME280;3376;42.664;23.346;2023-04-24T05:39:51;94246.59;;;12.77;71.43
6680;BME280;3376;42.664;23.346;2023-04-24T05:42:18;94257.31;;;13.02;69.74
6680;BME280;3376;42.664;23.346;2023-04-24T05:44:45;94267.06;;;12.99;69.23
6680;BME280;3376;42.664;23.346;2023-04-24T05:47:11;94266.44;;;12.97;71.34
6680;BME280;3376;42.664;23.346;2023-04-24T05:49:38;94268.88;;;12.99;71.84
6680;BME280;3376;42.664;23.346;2023-04-24T05:52:05;94266.53;;;13.11;72.03
6680;BME280;3376;42.664;23.346;2023-04-24T05:54:34;94266.19;;;13.40;69.70
6680;BME280;3376;42.664;23.346;2023-04-24T05:57:02;94264.38;;;13.60;69.09
6680;BME280;3376;42.664;23.346;2023-04-24T05:59:33;94259.00;;;13.42;70.17
6680;BME280;3376;42.664;23.346;2023-04-24T06:01:59;94263.81;;;13.71;68.87
6680;BME280;3376;42.664;23.346;2023-04-24T06:04:26;94259.97;;;13.93;67.64
6680;BME280;3376;42.664;23.346;2023-04-24T06:06:53;94255.75;;;14.05;67.19
6680;BME280;3376;42.664;23.346;2023-04-24T06:09:21;94267.78;;;14.26;67.10
6680;BME280;3376;42.664;23.346;2023-04-24T06:11:49;94254.94;;;14.31;65.44
6680;BME280;3376;42.664;23.346;2023-04-24T06:14:19;94265.88;;;14.52;66.12
6680;BME280;3376;42.664;23.346;2023-04-24T06:16:46;94265.25;;;14.63;67.32
6680;BME280;3376;42.664;23.346;2023-04-24T06:19:13;94267.78;;;14.89;66.11
6680;BME280;3376;42.664;23.346;2023-04-24T06:21:39;94267.09;;;15.00;62.53
6680;BME280;3376;42.664;23.346;2023-04-24T06:24:06;94265.94;;;15.27;63.64
6680;BME280;3376;42.664;23.346;2023-04-24T06:26:33;94270.38;;;15.65;61.21
6680;BME280;3376;42.664;23.346;2023-04-24T06:29:00;94273.84;;;15.83;60.88
6680;BME280;3376;42.664;23.346;2023-04-24T06:31:28;94272.75;;;15.91;61.39
6680;BME280;3376;42.664;23.346;2023-04-24T06:33:55;94272.75;;;16.15;60.84
6680;BME280;3376;42.664;23.346;2023-04-24T06:36:22;94265.06;;;16.20;58.88
6680;BME280;3376;42.664;23.346;2023-04-24T06:38:48;94257.81;;;16.22;59.20
6680;BME280;3376;42.664;23.346;2023-04-24T06:41:15;94263.03;;;16.40;58.77
6680;BME280;3376;42.664;23.346;2023-04-24T06:43:42;94253.22;;;16.36;58.93
6680;BME280;3376;42.664;23.346;2023-04-24T06:46:09;94278.50;;;16.42;59.89
6680;BME280;3376;42.664;23.346;2023-04-24T06:48:39;94278.69;;;16.65;57.97
6680;BME280;3376;42.664;23.346;2023-04-24T06:51:05;94278.63;;;16.72;59.27
6680;BME280;3376;42.664;23.346;2023-04-24T06:53:32;94257.31;;;16.68;58.27
6680;BME280;3376;42.664;23.346;2023-04-24T06:55:59;94274.69;;;16.81;57.43
6680;BME280;3376;42.664;23.346;2023-04-24T06:58:26;94271.63;;;16.84;57.57
6680;BME280;3376;42.664;23.346;2023-04-24T07:00:53;94270.97;;;17.06;57.22
6680;BME280;3376;42.664;23.346;2023-04-24T07:03:19;94245.06;;;17.16;55.19
6680;BME280;3376;42.664;23.346;2023-04-24T07:05:47;94255.88;;;17.20;55.06
6680;BME280;3376;42.664;23.346;2023-04-24T07:08:14;94251.56;;;17.25;54.36
6680;BME280;3376;42.664;23.346;2023-04-24T07:10:42;94255.38;;;17.11;55.22
6680;BME280;3376;42.664;23.346;2023-04-24T07:13:09;94238.47;;;17.14;56.23
6680;BME280;3376;42.664;23.346;2023-04-24T07:15:36;94241.94;;;17.37;55.07
6680;BME280;3376;42.664;23.346;2023-04-24T07:18:03;94246.25;;;17.62;52.83
6680;BME280;3376;42.664;23.346;2023-04-24T07:20:29;94203.75;;;17.59;52.62
6680;BME280;3376;42.664;23.346;2023-04-24T07:22:57;94240.94;;;18.14;53.05
6680;BME280;3376;42.664;23.346;2023-04-24T07:25:24;94243.81;;;18.47;51.93
6680;BME280;3376;42.664;23.346;2023-04-24T07:27:51;94247.19;;;18.71;51.10
6680;BME280;3376;42.664;23.346;2023-04-24T07:30:18;94249.78;;;18.83;49.43
6680;BME280;3376;42.664;23.346;2023-04-24T07:32:45;94241.38;;;18.69;50.16
6680;BME280;3376;42.664;23.346;2023-04-24T07:35:12;94226.34;;;18.93;48.85
6680;BME280;3376;42.664;23.346;2023-04-24T07:37:38;94226.31;;;19.04;48.73
6680;BME280;3376;42.664;23.346;2023-04-24T07:40:07;94235.13;;;18.98;49.14
6680;BME280;3376;42.664;23.346;2023-04-24T07:42:34;94227.84;;;18.89;49.24
6680;BME280;3376;42.664;23.346;2023-04-24T07:45:01;94206.09;;;19.05;49.00
6680;BME280;3376;42.664;23.346;2023-04-24T07:47:28;94229.78;;;19.21;49.04
6680;BME280;3376;42.664;23.346;2023-04-24T07:49:55;94219.50;;;19.20;48.66
6680;BME280;3376;42.664;23.346;2023-04-24T07:52:23;94223.50;;;19.50;49.27
6680;BME280;3376;42.664;23.346;2023-04-24T07:54:50;94222.63;;;19.78;47.18
6680;BME280;3376;42.664;23.346;2023-04-24T07:57:19;94216.72;;;20.04;46.03
6680;BME280;3376;42.664;23.346;2023-04-24T07:59:46;94222.41;;;20.29;44.43
6680;BME280;3376;42.664;23.346;2023-04-24T08:02:12;94202.13;;;20.46;44.73
6680;BME280;3376;42.664;23.346;2023-04-24T08:04:40;94211.91;;;20.51;44.82
6680;BME280;3376;42.664;23.346;2023-04-24T08:07:07;94224.75;;;20.69;43.98
6680;BME280;3376;42.664;23.346;2023-04-24T08:09:34;94213.88;;;21.03;43.17
6680;BME280;3376;42.664;23.346;2023-04-24T08:12:00;94213.47;;;21.38;42.37
6680;BME280;3376;42.664;23.346;2023-04-24T08:14:29;94215.25;;;21.59;42.06
6680;BME280;3376;42.664;23.346;2023-04-24T08:16:56;94198.19;;;21.72;41.61
6680;BME280;3376;42.664;23.346;2023-04-24T08:19:24;94207.34;;;21.91;41.02
6680;BME280;3376;42.664;23.346;2023-04-24T08:21:51;94199.31;;;21.76;41.38
6680;BME280;3376;42.664;23.346;2023-04-24T08:24:18;94200.03;;;21.98;41.48
6680;BME280;3376;42.664;23.346;2023-04-24T08:26:45;94197.00;;;21.79;41.82
6680;BME280;3376;42.664;23.346;2023-04-24T08:29:12;94090.44;;;21.12;41.83
6680;BME280;3376;42.664;23.346;2023-04-24T08:31:40;94195.00;;;21.96;41.63
6680;BME280;3376;42.664;23.346;2023-04-24T08:34:06;94191.44;;;22.12;40.58
6680;BME280;3376;42.664;23.346;2023-04-24T08:36:33;94190.88;;;22.05;40.69
6680;BME280;3376;42.664;23.346;2023-04-24T08:39:00;94189.09;;;22.16;40.21
6680;BME280;3376;42.664;23.346;2023-04-24T08:41:27;94178.66;;;21.99;40.72
6680;BME280;3376;42.664;23.346;2023-04-24T08:43:54;94181.03;;;22.43;39.88
6680;BME280;3376;42.664;23.346;2023-04-24T08:46:24;94175.75;;;22.43;39.62
6680;BME280;3376;42.664;23.346;2023-04-24T08:48:52;94172.72;;;22.61;40.17
6680;BME280;3376;42.664;23.346;2023-04-24T08:51:19;94174.34;;;22.72;39.13
6680;BME280;3376;42.664;23.346;2023-04-24T08:53:47;94172.25;;;22.74;39.22
6680;BME280;3376;42.664;23.346;2023-04-24T08:56:13;94161.69;;;22.74;40.01
6680;BME280;3376;42.664;23.346;2023-04-24T08:58:42;94162.25;;;22.86;39.12
6680;BME280;3376;42.664;23.346;2023-04-24T09:01:09;94164.38;;;22.94;39.26
6680;BME280;3376;42.664;23.346;2023-04-24T09:03:37;94153.06;;;23.03;39.24
6680;BME280;3376;42.664;23.346;2023-04-24T09:06:08;94161.34;;;23.32;38.50
6680;BME280;3376;42.664;23.346;2023-04-24T09:08:36;94151.84;;;23.36;37.58
6680;BME280;3376;42.664;23.346;2023-04-24T09:11:02;94156.59;;;23.89;36.55
6680;BME280;3376;42.664;23.346;2023-04-24T09:13:30;94157.41;;;24.10;35.65
6680;BME280;3376;42.664;23.346;2023-04-24T09:15:58;94156.88;;;23.98;36.33
6680;BME280;3376;42.664;23.346;2023-04-24T09:18:26;94149.47;;;23.75;36.07
6680;BME280;3376;42.664;23.346;2023-04-24T09:21:00;94145.22;;;23.64;36.65
6680;BME280;3376;42.664;23.346;2023-04-24T09:23:30;94140.72;;;23.39;37.16
6680;BME280;3376;42.664;23.346;2023-04-24T09:25:58;94140.63;;;22.99;38.65
6680;BME280;3376;42.664;23.346;2023-04-24T09:28:27;94114.44;;;22.92;38.14
6680;BME280;3376;42.664;23.346;2023-04-24T09:31:06;94118.41;;;22.90;38.55
6680;BME280;3376;42.664;23.346;2023-04-24T09:33:33;94101.22;;;22.82;38.76
6680;BME280;3376;42.664;23.346;2023-04-24T09:36:00;94116.81;;;22.94;38.37
6680;BME280;3376;42.664;23.346;2023-04-24T09:38:33;94134.31;;;23.20;38.10
6680;BME280;3376;42.664;23.346;2023-04-24T09:41:01;94126.41;;;23.25;37.62
6680;BME280;3376;42.664;23.346;2023-04-24T09:43:28;94110.31;;;23.47;37.01
6680;BME280;3376;42.664;23.346;2023-04-24T09:45:56;94119.03;;;23.87;36.01
6680;BME280;3376;42.664;23.346;2023-04-24T09:48:30;94117.41;;;24.16;35.13
6680;BME280;3376;42.664;23.346;2023-04-24T09:50:57;94122.44;;;24.23;35.33
6680;BME280;3376;42.664;23.346;2023-04-24T09:53:24;94117.59;;;24.40;35.49
6680;BME280;3376;42.664;23.346;2023-04-24T09:55:53;94111.47;;;24.50;35.34
6680;BME280;3376;42.664;23.346;2023-04-24T09:58:24;94111.00;;;24.32;36.53
6680;BME280;3376;42.664;23.346;2023-04-24T10:00:53;94101.47;;;24.31;35.28
6680;BME280;3376;42.664;23.346;2023-04-24T10:03:24;94102.66;;;23.70;35.49
6680;BME280;3376;42.664;23.346;2023-04-24T10:05:52;94106.34;;;23.59;35.58
6680;BME280;3376;42.664;23.346;2023-04-24T10:08:20;94097.63;;;23.49;35.56
6680;BME280;3376;42.664;23.346;2023-04-24T10:10:47;94091.03;;;23.46;35.94
6680;BME280;3376;42.664;23.346;2023-04-24T10:13:15;94090.47;;;23.19;35.80
6680;BME280;3376;42.664;23.346;2023-04-24T10:15:42;94073.00;;;23.18;36.46
6680;BME280;3376;42.664;23.346;2023-04-24T10:18:10;94075.94;;;23.57;36.36
6680;BME280;3376;42.664;23.346;2023-04-24T10:20:38;93993.94;;;23.62;35.79
6680;BME280;3376;42.664;23.346;2023-04-24T10:23:06;94060.69;;;24.32;34.99
6680;BME280;3376;42.664;23.346;2023-04-24T10:25:35;94067.13;;;24.75;33.57
6680;BME280;3376;42.664;23.346;2023-04-24T10:28:02;94072.50;;;25.09;32.96
6680;BME280;3376;42.664;23.346;2023-04-24T10:30:32;94042.22;;;24.81;33.04
6680;BME280;3376;42.664;23.346;2023-04-24T10:33:01;94053.13;;;25.13;33.55
6680;BME280;3376;42.664;23.346;2023-04-24T10:35:31;94050.63;;;25.27;33.58
6680;BME280;3376;42.664;23.346;2023-04-24T10:38:01;94055.34;;;25.35;33.52
6680;BME280;3376;42.664;23.346;2023-04-24T10:40:31;93965.34;;;24.37;34.28
6680;BME280;3376;42.664;23.346;2023-04-24T10:42:59;94054.44;;;25.16;34.00
6680;BME280;3376;42.664;23.346;2023-04-24T10:45:26;94042.59;;;25.03;33.28
6680;BME280;3376;42.664;23.346;2023-04-24T10:48:04;93985.44;;;24.87;33.53
6680;BME280;3376;42.664;23.346;2023-04-24T10:50:43;94034.72;;;25.27;33.04
6680;BME280;3376;42.664;23.346;2023-04-24T10:53:15;94012.97;;;24.91;33.74
6680;BME280;3376;42.664;23.346;2023-04-24T10:55:44;94025.69;;;25.28;33.08
6680;BME280;3376;42.664;23.346;2023-04-24T10:58:11;94027.78;;;25.65;32.33
6680;BME280;3376;42.664;23.346;2023-04-24T11:00:55;94021.03;;;26.01;31.09
6680;BME280;3376;42.664;23.346;2023-04-24T11:03:25;94014.22;;;25.66;32.28
6680;BME280;3376;42.664;23.346;2023-04-24T11:05:55;94018.75;;;25.32;32.05
6680;BME280;3376;42.664;23.346;2023-04-24T11:08:28;94017.44;;;25.01;31.90
6680;BME280;3376;42.664;23.346;2023-04-24T11:10:57;94013.19;;;23.92;33.33
6680;BME280;3376;42.664;23.346;2023-04-24T11:13:25;94011.06;;;23.79;33.68
6680;BME280;3376;42.664;23.346;2023-04-24T11:16:13;94003.50;;;23.43;36.01
6680;BME280;3376;42.664;23.346;2023-04-24T11:18:43;94004.81;;;23.00;34.95
6680;BME280;3376;42.664;23.346;2023-04-24T11:21:16;94010.31;;;22.63;37.29
6680;BME280;3376;42.664;23.346;2023-04-24T11:23:44;94011.00;;;22.29;36.89
6680;BME280;3376;42.664;23.346;2023-04-24T11:26:11;94042.03;;;22.01;38.63
6680;BME280;3376;42.664;23.346;2023-04-24T11:28:44;94040.00;;;21.30;39.78
6680;BME280;3376;42.664;23.346;2023-04-24T11:31:39;94036.63;;;20.76;43.75
6680;BME280;3376;42.664;23.346;2023-04-24T11:34:09;94051.75;;;20.38;44.44
6680;BME280;3376;42.664;23.346;2023-04-24T11:36:37;94046.97;;;19.92;46.71
6680;BME280;3376;42.664;23.346;2023-04-24T11:39:04;94046.44;;;19.73;49.77
6680;BME280;3376;42.664;23.346;2023-04-24T11:41:32;94043.69;;;19.63;49.50
6680;BME280;3376;42.664;23.346;2023-04-24T11:43:59;94034.84;;;19.52;48.64
6680;BME280;3376;42.664;23.346;2023-04-24T11:46:28;94045.63;;;19.34;46.02
6680;BME280;3376;42.664;23.346;2023-04-24T11:48:55;94057.25;;;19.05;48.78
6680;BME280;3376;42.664;23.346;2023-04-24T11:51:24;94034.28;;;18.67;49.99
6680;BME280;3376;42.664;23.346;2023-04-24T11:53:52;94073.25;;;18.59;53.87
6680;BME280;3376;42.664;23.346;2023-04-24T11:56:19;94044.13;;;18.44;55.91
6680;BME280;3376;42.664;23.346;2023-04-24T11:58:47;94042.97;;;18.40;53.68
6680;BME280;3376;42.664;23.346;2023-04-24T12:01:14;94044.69;;;18.46;55.15
6680;BME280;3376;42.664;23.346;2023-04-24T12:03:41;94020.69;;;18.54;54.43
6680;BME280;3376;42.664;23.346;2023-04-24T12:06:11;94018.47;;;18.62;53.30
6680;BME280;3376;42.664;23.346;2023-04-24T12:08:40;93998.41;;;18.56;52.72
6680;BME280;3376;42.664;23.346;2023-04-24T12:11:07;94020.53;;;18.77;52.58
6680;BME280;3376;42.664;23.346;2023-04-24T12:13:34;94009.50;;;18.92;53.54
6680;BME280;3376;42.664;23.346;2023-04-24T12:16:03;94005.28;;;19.07;52.80
6680;BME280;3376;42.664;23.346;2023-04-24T12:18:31;93976.00;;;18.99;50.79
6680;BME280;3376;42.664;23.346;2023-04-24T12:21:18;94014.38;;;19.33;52.08
6680;BME280;3376;42.664;23.346;2023-04-24T12:23:47;94011.06;;;19.42;50.26
6680;BME280;3376;42.664;23.346;2023-04-24T12:26:17;94002.09;;;19.38;48.66
6680;BME280;3376;42.664;23.346;2023-04-24T12:28:47;93995.81;;;19.06;49.12
6680;BME280;3376;42.664;23.346;2023-04-24T12:31:15;94002.97;;;18.94;48.95
6680;BME280;3376;42.664;23.346;2023-04-24T12:33:42;93981.97;;;18.94;48.87
6680;BME280;3376;42.664;23.346;2023-04-24T12:36:10;93975.44;;;18.97;50.66
6680;BME280;3376;42.664;23.346;2023-04-24T12:38:37;93991.81;;;19.20;50.33
6680;BME280;3376;42.664;23.346;2023-04-24T12:41:09;93976.47;;;19.12;49.74
6680;BME280;3376;42.664;23.346;2023-04-24T12:43:37;93964.75;;;19.20;49.89
6680;BME280;3376;42.664;23.346;2023-04-24T12:46:04;93951.09;;;19.01;50.90
6680;BME280;3376;42.664;23.346;2023-04-24T12:48:31;93957.22;;;19.07;49.91
6680;BME280;3376;42.664;23.346;2023-04-24T12:50:58;93958.84;;;19.08;49.94
6680;BME280;3376;42.664;23.346;2023-04-24T12:53:27;93948.28;;;19.24;48.99
6680;BME280;3376;42.664;23.346;2023-04-24T12:55:56;93949.75;;;18.82;49.49
6680;BME280;3376;42.664;23.346;2023-04-24T12:58:25;93926.63;;;18.62;50.37
6680;BME280;3376;42.664;23.346;2023-04-24T13:00:51;93909.13;;;18.51;50.82
6680;BME280;3376;42.664;23.346;2023-04-24T13:03:18;93895.50;;;18.21;50.81
6680;BME280;3376;42.664;23.346;2023-04-24T13:05:45;93857.28;;;18.09;51.39
6680;BME280;3376;42.664;23.346;2023-04-24T13:08:12;93893.00;;;18.43;51.44
6680;BME280;3376;42.664;23.346;2023-04-24T13:10:39;93912.72;;;18.62;50.04
6680;BME280;3376;42.664;23.346;2023-04-24T13:13:06;93888.00;;;18.58;49.97